createdAt,value
2022-09-12T00:01:24.382Z,14.18
2022-09-12T00:03:54.541Z,12.25
2022-09-12T00:06:25.180Z,16.13
2022-09-12T00:08:54.918Z,14.73
2022-09-12T00:11:24.266Z,11.13
2022-09-12T00:13:51.873Z,13.65
2022-09-12T00:16:22.618Z,15.13
2022-09-12T00:18:50.211Z,10.90
2022-09-12T00:21:18.558Z,13.25
2022-09-12T00:23:47.963Z,13.63
2022-09-12T00:26:17.209Z,19.65
2022-09-12T00:28:44.839Z,14.50
2022-09-12T00:31:21.391Z,9.80
2022-09-12T00:33:48.753Z,19.92
2022-09-12T00:36:21.765Z,13.88
2022-09-12T00:38:50.139Z,10.93
2022-09-12T00:41:27.064Z,9.45
2022-09-12T00:44:00.114Z,9.55
2022-09-12T00:46:42.125Z,10.95
2022-09-12T00:49:16.328Z,11.40
2022-09-12T00:51:47.799Z,10.73
2022-09-12T00:54:20.751Z,10.40
2022-09-12T00:56:49.353Z,15.93
2022-09-12T00:59:22.717Z,12.82
2022-09-12T01:01:53.867Z,15.30
2022-09-12T01:04:23.444Z,10.48
2022-09-12T01:06:51.039Z,12.75
2022-09-12T01:09:20.953Z,15.00
2022-09-12T01:11:49.550Z,13.35
2022-09-12T01:14:18.900Z,10.80
2022-09-12T01:16:47.685Z,11.88
2022-09-12T01:19:19.008Z,16.58
2022-09-12T01:22:01.587Z,14.75
2022-09-12T01:24:47.057Z,13.20
2022-09-12T01:27:14.485Z,10.48
2022-09-12T01:30:03.537Z,9.18
2022-09-12T01:32:46.907Z,11.13
2022-09-12T01:35:25.999Z,18.90
2022-09-12T01:38:02.159Z,14.65
2022-09-12T01:40:36.587Z,11.77
2022-09-12T01:43:26.832Z,14.40
2022-09-12T01:46:17.742Z,10.77
2022-09-12T01:48:53.141Z,11.43
2022-09-12T01:51:32.652Z,11.18
2022-09-12T01:54:13.642Z,13.38
2022-09-12T01:56:42.052Z,10.77
2022-09-12T01:59:16.872Z,12.45
2022-09-12T02:01:50.403Z,14.18
2022-09-12T02:04:23.371Z,16.48
2022-09-12T02:07:04.022Z,11.73
2022-09-12T02:09:56.876Z,34.00
2022-09-12T02:12:28.070Z,19.95
2022-09-12T02:15:00.463Z,15.82
2022-09-12T02:17:28.951Z,18.17
2022-09-12T02:20:01.284Z,19.92
2022-09-12T02:22:30.463Z,17.50
2022-09-12T02:25:00.506Z,11.98
2022-09-12T02:27:37.875Z,14.20
2022-09-12T02:30:07.129Z,13.60
2022-09-12T02:32:43.494Z,17.45
2022-09-12T02:35:18.391Z,14.32
2022-09-12T02:38:10.109Z,13.95
2022-09-12T02:40:37.921Z,19.55
2022-09-12T02:43:06.122Z,11.82
2022-09-12T02:45:34.614Z,12.32
2022-09-12T02:48:15.626Z,12.38
2022-09-12T02:50:43.574Z,13.70
2022-09-12T02:53:11.381Z,16.75
2022-09-12T02:55:40.604Z,14.82
2022-09-12T02:58:21.252Z,10.98
2022-09-12T03:00:54.610Z,11.52
2022-09-12T03:03:31.108Z,19.92
2022-09-12T03:06:00.823Z,19.75
2022-09-12T03:08:54.424Z,16.20
2022-09-12T03:11:27.585Z,13.75
2022-09-12T03:14:07.303Z,15.45
2022-09-12T03:17:17.279Z,13.77
2022-09-12T03:20:10.192Z,12.40
2022-09-12T03:22:53.499Z,10.45
2022-09-12T03:25:30.872Z,14.35
2022-09-12T03:28:00.384Z,16.15
2022-09-12T03:30:27.823Z,13.85
2022-09-12T03:32:55.510Z,15.93
2022-09-12T03:35:25.148Z,13.05
2022-09-12T03:37:53.214Z,12.88
2022-09-12T03:40:20.789Z,11.30
2022-09-12T03:42:48.156Z,15.55
2022-09-12T03:45:16.682Z,11.15
2022-09-12T03:47:44.020Z,11.85
2022-09-12T03:50:11.583Z,14.18
2022-09-12T03:52:38.869Z,10.90
2022-09-12T03:55:06.749Z,17.00
2022-09-12T03:57:34.433Z,19.23
2022-09-12T04:00:02.221Z,13.80
2022-09-12T04:02:29.597Z,14.82
2022-09-12T04:04:56.977Z,16.15
2022-09-12T04:07:24.264Z,14.63
2022-09-12T04:09:51.602Z,18.15
2022-09-12T04:12:19.664Z,20.05
2022-09-12T04:14:46.911Z,16.00
2022-09-12T04:17:15.270Z,18.65
2022-09-12T04:19:45.782Z,18.08
2022-09-12T04:22:14.082Z,21.02
2022-09-12T04:24:41.313Z,25.27
2022-09-12T04:27:08.558Z,30.40
2022-09-12T04:29:36.028Z,23.60
2022-09-12T04:32:03.852Z,30.40
2022-09-12T04:34:32.565Z,24.40
2022-09-12T04:37:00.307Z,23.60
2022-09-12T04:39:27.916Z,26.08
2022-09-12T04:41:55.700Z,27.02
2022-09-12T04:44:22.900Z,25.08
2022-09-12T04:46:50.486Z,38.78
2022-09-12T04:49:19.455Z,31.95
2022-09-12T04:51:47.781Z,25.98
2022-09-12T04:54:18.247Z,21.85
2022-09-12T04:56:48.833Z,27.88
2022-09-12T04:59:17.523Z,21.13
2022-09-12T05:01:45.737Z,24.10
2022-09-12T05:04:17.734Z,20.42
2022-09-12T05:06:47.486Z,24.17
2022-09-12T05:09:16.201Z,20.48
2022-09-12T05:12:03.683Z,22.98
2022-09-12T05:14:34.152Z,46.50
2022-09-12T05:17:02.183Z,41.08
2022-09-12T05:19:30.527Z,23.05
2022-09-12T05:21:59.022Z,26.65
2022-09-12T05:24:26.663Z,24.45
2022-09-12T05:26:54.016Z,26.33
2022-09-12T05:29:22.280Z,20.83
2022-09-12T05:31:52.166Z,19.45
2022-09-12T05:34:22.698Z,15.23
2022-09-12T05:36:50.190Z,32.42
2022-09-12T05:39:18.678Z,20.50
2022-09-12T05:41:46.369Z,19.63
2022-09-12T05:44:15.475Z,27.13
2022-09-12T05:46:45.238Z,20.48
2022-09-12T05:49:15.053Z,19.75
2022-09-12T05:51:45.949Z,24.52
2022-09-12T05:54:18.875Z,16.15
2022-09-12T06:41:43.783Z,23.45
2022-09-12T06:44:22.937Z,19.48
2022-09-12T06:46:50.836Z,16.25
2022-09-12T06:49:18.649Z,23.98
2022-09-12T06:51:49.032Z,27.30
2022-09-12T06:54:17.754Z,21.67
2022-09-12T12:10:32.108Z,12.23
2022-09-12T12:13:02.022Z,10.48
2022-09-12T12:15:30.866Z,13.45
2022-09-12T12:18:31.396Z,8.95
2022-09-12T12:21:37.125Z,14.38
2022-09-12T12:24:07.428Z,11.73
2022-09-12T12:26:44.264Z,9.32
2022-09-12T12:29:17.337Z,10.95
2022-09-12T12:32:03.611Z,8.32
2022-09-12T12:34:38.002Z,12.55
2022-09-12T12:37:23.313Z,13.18
2022-09-12T12:39:51.893Z,9.65
2022-09-12T12:42:34.620Z,14.85
2022-09-12T12:45:31.609Z,9.13
2022-09-12T12:48:08.952Z,13.05
2022-09-12T12:50:36.404Z,10.88
2022-09-12T12:53:06.143Z,12.82
2022-09-12T12:55:39.088Z,12.23
2022-09-12T12:58:08.232Z,13.35
2022-09-12T13:00:39.918Z,10.70
2022-09-12T13:03:07.418Z,13.07
2022-09-12T13:05:49.428Z,12.25
2022-09-12T13:08:19.965Z,9.50
2022-09-12T13:11:11.419Z,10.60
2022-09-12T13:14:02.431Z,15.27
2022-09-12T13:16:51.346Z,13.57
2022-09-12T13:19:24.702Z,9.75
2022-09-12T13:22:04.252Z,9.82
2022-09-12T13:24:31.538Z,10.00
2022-09-12T13:26:58.975Z,8.25
2022-09-12T13:29:27.861Z,10.50
2022-09-12T13:31:55.072Z,16.45
2022-09-12T13:34:43.861Z,21.80
2022-09-12T13:37:26.438Z,45.10
2022-09-12T13:40:21.822Z,18.40
2022-09-12T13:42:49.527Z,18.45
2022-09-12T13:45:24.920Z,13.18
2022-09-12T13:48:02.013Z,12.40
2022-09-12T13:50:37.838Z,11.13
2022-09-12T13:53:07.507Z,12.68
2022-09-12T13:55:37.253Z,11.40
2022-09-12T13:58:07.160Z,9.05
2022-09-12T14:00:35.158Z,11.07
2022-09-12T14:03:45.817Z,11.63
2022-09-12T14:06:13.325Z,9.77
2022-09-12T14:08:43.709Z,9.50
2022-09-12T14:11:11.912Z,8.95
2022-09-12T14:13:39.385Z,8.65
2022-09-12T14:16:09.978Z,8.25
2022-09-12T14:18:39.258Z,9.52
2022-09-12T14:21:12.865Z,11.02
2022-09-12T14:23:42.618Z,8.07
2022-09-12T14:26:12.451Z,9.05
2022-09-12T14:28:44.904Z,10.45
2022-09-12T14:31:18.453Z,11.25
2022-09-12T14:33:48.031Z,7.72
2022-09-12T14:36:29.874Z,7.55
2022-09-12T14:39:04.025Z,8.68
2022-09-12T14:41:39.161Z,7.68
2022-09-12T14:44:14.869Z,13.30
2022-09-12T14:46:43.200Z,10.98
2022-09-12T14:49:35.041Z,7.45
2022-09-12T14:52:05.767Z,8.93
2022-09-12T14:54:33.943Z,11.52
2022-09-12T14:57:27.964Z,11.10
2022-09-12T15:00:11.466Z,9.25
2022-09-12T15:02:42.914Z,9.55
2022-09-12T15:05:10.788Z,11.70
2022-09-12T15:07:51.224Z,7.88
2022-09-12T15:10:27.384Z,8.82
2022-09-12T15:13:09.888Z,12.48
2022-09-12T15:15:39.612Z,8.90
2022-09-12T15:18:08.196Z,9.80
2022-09-12T15:20:40.316Z,10.48
2022-09-12T15:23:13.268Z,12.80
2022-09-12T15:25:42.266Z,11.63
2022-09-12T15:28:19.116Z,11.20
2022-09-12T15:30:49.547Z,11.25
2022-09-12T15:33:22.971Z,13.10
2022-09-12T15:35:51.219Z,17.25
2022-09-12T15:38:21.048Z,11.93
2022-09-12T15:40:54.998Z,11.25
2022-09-12T15:43:28.079Z,13.00
2022-09-12T15:45:55.392Z,13.05
2022-09-12T15:48:22.685Z,11.32
2022-09-12T15:50:49.917Z,15.50
2022-09-12T15:53:17.348Z,12.30
2022-09-12T15:55:44.977Z,11.93
2022-09-12T15:58:12.883Z,15.95
2022-09-12T16:00:41.143Z,15.60
2022-09-12T16:03:26.090Z,12.13
2022-09-12T16:05:59.620Z,12.85
2022-09-12T16:08:29.631Z,14.32
2022-09-12T16:11:03.269Z,14.30
2022-09-12T16:13:30.857Z,15.27
2022-09-12T16:16:09.338Z,20.02
2022-09-12T16:18:36.827Z,15.52
2022-09-12T16:21:10.024Z,20.67
2022-09-12T16:23:42.987Z,25.42
2022-09-12T16:26:12.216Z,16.00
2022-09-12T16:28:41.976Z,14.38
2022-09-12T16:31:14.494Z,14.27
2022-09-12T16:33:44.553Z,14.98
2022-09-12T16:36:17.443Z,14.75
2022-09-12T16:38:55.717Z,15.32
2022-09-12T16:41:27.435Z,16.83
2022-09-12T16:43:55.254Z,16.25
2022-09-12T16:46:28.967Z,17.30
2022-09-12T16:48:58.085Z,15.40
2022-09-12T16:51:28.148Z,17.98
2022-09-12T16:53:56.038Z,17.27
2022-09-12T16:56:24.411Z,17.13
2022-09-12T16:58:54.703Z,20.13
2022-09-12T17:01:24.581Z,18.83
2022-09-12T17:03:56.913Z,19.98
2022-09-12T17:06:25.484Z,32.80
2022-09-12T17:08:55.782Z,19.38
2022-09-12T17:11:29.832Z,15.40
2022-09-12T17:14:05.402Z,19.05
2022-09-12T17:16:40.836Z,18.48
2022-09-12T17:19:18.079Z,16.33
2022-09-12T17:21:53.638Z,27.70
2022-09-12T17:24:25.525Z,15.23
2022-09-12T17:26:57.514Z,17.48
2022-09-12T17:29:38.696Z,14.90
2022-09-12T17:32:06.357Z,19.60
2022-09-12T17:34:35.319Z,16.80
2022-09-12T17:37:02.556Z,17.23
2022-09-12T17:39:29.941Z,19.60
2022-09-12T17:41:57.886Z,21.38
2022-09-12T17:44:25.219Z,21.38
2022-09-12T17:46:52.483Z,19.55
2022-09-12T17:49:22.085Z,17.20
2022-09-12T17:51:52.156Z,53.58
2022-09-12T17:54:21.381Z,22.67
2022-09-12T17:56:51.327Z,20.63
2022-09-12T17:59:21.570Z,23.98
2022-09-12T18:02:08.125Z,25.35
2022-09-12T18:04:35.540Z,25.88
2022-09-12T18:07:03.052Z,21.65
2022-09-12T18:09:30.862Z,39.25
2022-09-12T18:11:58.708Z,30.73
2022-09-12T18:14:29.278Z,28.48
2022-09-12T18:16:57.362Z,32.65
2022-09-12T18:19:25.030Z,41.45
2022-09-12T18:21:55.016Z,38.70
2022-09-12T18:24:22.588Z,34.03
2022-09-12T18:27:12.515Z,34.80
2022-09-12T18:30:04.260Z,36.90
2022-09-12T18:33:03.349Z,34.17
2022-09-12T18:39:00.354Z,26.27
2022-09-12T18:41:42.778Z,26.75
2022-09-12T18:44:11.903Z,29.80
2022-09-12T18:46:40.962Z,32.10
2022-09-12T18:49:09.460Z,31.98
2022-09-12T18:51:40.121Z,31.42
2022-09-12T18:54:12.833Z,28.45
2022-09-12T18:56:43.574Z,30.88
2022-09-12T18:59:14.150Z,34.78
2022-09-12T19:01:43.213Z,164.32
2022-09-12T19:04:11.907Z,36.22
2022-09-12T19:06:41.867Z,34.53
2022-09-12T19:09:13.434Z,33.03
2022-09-12T19:11:48.709Z,31.02
2022-09-12T19:14:23.188Z,43.05
2022-09-12T19:16:52.107Z,40.28
2022-09-12T19:19:20.653Z,40.08
2022-09-12T19:21:48.050Z,41.55
2022-09-12T19:24:16.605Z,37.90
2022-09-12T19:26:47.868Z,40.10
2022-09-12T19:29:16.795Z,41.22
2022-09-12T19:31:45.083Z,36.15
2022-09-12T19:34:13.635Z,38.90
2022-09-12T19:36:45.276Z,39.28
2022-09-12T19:39:13.649Z,50.22
2022-09-12T19:41:41.047Z,48.88
2022-09-12T19:44:08.283Z,44.90
2022-09-12T19:46:36.267Z,38.22
2022-09-12T19:49:03.836Z,32.80
2022-09-12T19:51:31.503Z,27.38
2022-09-12T19:53:58.838Z,24.45
2022-09-12T19:56:26.166Z,22.67
2022-09-12T19:58:56.676Z,27.40
2022-09-12T20:01:27.837Z,25.00
2022-09-12T20:03:56.467Z,23.48
2022-09-12T20:06:24.139Z,25.83
2022-09-12T20:08:51.530Z,44.58
2022-09-12T20:11:21.180Z,36.40
2022-09-12T20:14:03.662Z,30.10
2022-09-12T20:16:31.203Z,26.90
2022-09-12T20:19:01.762Z,28.33
2022-09-12T20:21:35.918Z,27.00
2022-09-12T20:24:06.301Z,26.17
2022-09-12T20:26:34.200Z,32.35
2022-09-12T20:29:02.032Z,28.75
2022-09-12T20:31:30.312Z,28.45
2022-09-12T20:33:58.257Z,30.60
2022-09-12T20:36:32.586Z,29.23
2022-09-12T20:39:01.559Z,33.92
2022-09-12T20:41:31.377Z,34.33
2022-09-12T20:43:58.838Z,33.97
2022-09-12T20:46:27.808Z,33.10
2022-09-12T20:48:55.553Z,30.50
2022-09-12T20:51:24.646Z,37.88
2022-09-12T20:53:57.179Z,31.60
2022-09-12T20:56:24.726Z,26.48
2022-09-12T20:58:51.991Z,33.63
2022-09-12T21:01:19.840Z,39.20
2022-09-12T21:03:47.600Z,37.45
2022-09-12T21:06:19.227Z,37.25
2022-09-12T21:08:47.390Z,42.72
2022-09-12T21:11:15.208Z,36.47
2022-09-12T21:13:43.046Z,38.55
2022-09-12T21:16:15.988Z,39.35
2022-09-12T21:18:43.723Z,45.38
2022-09-12T21:21:12.457Z,39.03
2022-09-12T21:23:40.371Z,44.67
2022-09-12T21:26:07.982Z,42.08
2022-09-12T21:28:35.326Z,43.47
2022-09-12T21:31:04.645Z,49.97
2022-09-12T21:33:32.263Z,40.80
2022-09-12T21:36:06.695Z,43.88
2022-09-12T21:38:34.468Z,42.58
2022-09-12T21:41:13.816Z,36.97
2022-09-12T21:43:43.086Z,38.88
2022-09-12T21:46:10.946Z,43.25
2022-09-12T21:48:38.243Z,38.25
2022-09-12T21:51:05.881Z,36.17
2022-09-12T21:53:33.330Z,40.28
2022-09-12T21:56:05.770Z,50.72
2022-09-12T21:58:33.158Z,44.85
2022-09-12T22:01:01.373Z,52.17
2022-09-12T22:03:29.399Z,55.08
2022-09-12T22:06:02.037Z,47.47
2022-09-12T22:08:31.646Z,58.45
2022-09-12T22:11:05.137Z,64.50
2022-09-12T22:13:33.741Z,61.35
2022-09-12T22:16:03.184Z,60.17
2022-09-12T22:18:35.852Z,62.55
2022-09-12T22:21:08.803Z,63.00
2022-09-12T22:23:54.457Z,60.83
2022-09-12T22:26:22.051Z,58.30
2022-09-12T22:28:50.135Z,53.45
2022-09-12T22:31:17.816Z,52.90
2022-09-12T22:33:45.583Z,50.53
2022-09-12T22:36:13.170Z,56.85
2022-09-12T22:38:40.717Z,52.15
2022-09-12T22:41:10.426Z,51.95
2022-09-12T22:43:38.130Z,43.92
2022-09-12T22:46:07.313Z,50.13
2022-09-12T22:48:37.395Z,47.05
2022-09-12T22:51:05.056Z,42.47
2022-09-12T22:53:32.608Z,47.25
2022-09-12T22:55:59.884Z,47.58
2022-09-12T22:58:27.545Z,40.35
2022-09-12T23:00:55.084Z,39.10
2022-09-12T23:03:22.480Z,44.03
2022-09-12T23:05:49.910Z,45.03
2022-09-12T23:08:17.823Z,40.15
2022-09-12T23:10:46.800Z,42.95
2022-09-12T23:13:14.076Z,48.03
2022-09-12T23:15:41.541Z,44.10
2022-09-12T23:18:09.167Z,42.05
2022-09-12T23:20:36.344Z,54.13
2022-09-12T23:23:04.030Z,42.53
2022-09-12T23:25:31.243Z,37.30
2022-09-12T23:27:59.693Z,35.78
2022-09-12T23:30:26.968Z,35.15
2022-09-12T23:32:56.377Z,38.05
2022-09-12T23:35:23.561Z,36.53
2022-09-12T23:37:50.825Z,32.92
2022-09-12T23:40:18.541Z,44.90
2022-09-12T23:42:45.805Z,38.40
2022-09-12T23:45:13.134Z,37.63
2022-09-12T23:47:41.484Z,36.35
2022-09-12T23:50:08.890Z,43.20
2022-09-12T23:52:36.146Z,34.75
2022-09-12T23:55:03.495Z,40.28
2022-09-12T23:57:30.790Z,38.75
2022-09-12T23:59:57.990Z,38.83
